Time;durP1;ratioP1;P1;durP2;ratioP2;P2;SDS_P1;SDS_P2;PMS_P1;PMS_P2;Temp;Humidity;BMP_temperature;BMP_pressure;BME280_temperature;BME280_humidity;BME280_pressure;Samples;Min_cycle;Max_cycle;Signal;HPM_P1;HPM_P2
2023/04/02 00:01:35;;;;;;;5.65;3.67;;;;;;;9.36;100.00;99901.81;5051287;28;20127;-71
2023/04/02 00:04:13;;;;;;;5.97;3.50;;;;;;;9.30;100.00;99883.34;5050842;28;20059;-72
2023/04/02 00:06:43;;;;;;;6.82;3.55;;;;;;;9.45;100.00;99918.47;5052091;28;20057;-72
2023/04/02 00:09:11;;;;;;;4.63;3.30;;;;;;;8.93;100.00;99865.66;5051755;28;20051;-72
2023/04/02 00:11:41;;;;;;;4.25;3.47;;;;;;;9.23;100.00;99889.47;5052110;28;20415;-71
2023/04/02 00:14:26;;;;;;;4.50;3.08;;;;;;;9.30;100.00;99879.13;5051812;28;20079;-72
2023/04/02 00:16:54;;;;;;;6.10;3.83;;;;;;;9.11;100.00;99880.41;5051999;28;20518;-70
2023/04/02 00:19:44;;;;;;;4.80;3.28;;;;;;;8.93;100.00;99875.78;5051539;28;20036;-71
2023/04/02 00:22:18;;;;;;;4.05;2.75;;;;;;;8.58;100.00;99825.91;5050103;28;20021;-71
2023/04/02 00:24:44;;;;;;;4.03;2.88;;;;;;;8.58;100.00;99830.97;5051479;28;20234;-71
2023/04/02 00:27:11;;;;;;;4.30;3.08;;;;;;;9.27;100.00;99827.63;5050726;28;20495;-71
2023/04/02 00:29:45;;;;;;;3.92;2.92;;;;;;;9.22;100.00;99834.50;5051570;28;20556;-72
2023/04/02 00:32:19;;;;;;;18.63;10.02;;;;;;;8.96;100.00;99821.63;5051449;28;20032;-72
2023/04/02 00:34:45;;;;;;;7.82;6.10;;;;;;;9.03;100.00;99810.50;5051785;28;20112;-71
2023/04/02 00:37:17;;;;;;;6.05;5.05;;;;;;;9.07;100.00;99809.53;5051418;28;20476;-72
2023/04/02 00:39:43;;;;;;;7.53;5.30;;;;;;;8.55;100.00;99785.44;5051369;28;20551;-72
2023/04/02 00:42:11;;;;;;;5.80;4.53;;;;;;;8.61;100.00;99808.09;5051285;28;20074;-72
2023/04/02 00:44:42;;;;;;;7.32;4.70;;;;;;;8.92;100.00;99860.59;5049732;28;20112;-72
2023/04/02 00:47:31;;;;;;;5.45;3.60;;;;;;;8.86;100.00;99860.72;5051195;28;20029;-72
2023/04/02 00:50:06;;;;;;;4.68;4.00;;;;;;;8.55;100.00;99838.66;5049643;28;20139;-71
2023/04/02 00:52:34;;;;;;;6.07;4.88;;;;;;;8.46;100.00;99843.06;5051612;28;20476;-71
2023/04/02 00:55:06;;;;;;;5.43;4.00;;;;;;;8.44;100.00;99853.22;5049152;28;20510;-71
2023/04/02 00:57:32;;;;;;;4.07;3.60;;;;;;;8.40;100.00;99806.03;5051001;28;20423;-71
2023/04/02 01:00:13;;;;;;;4.20;3.45;;;;;;;8.80;100.00;99845.66;5050765;28;20033;-71
2023/04/02 01:02:39;;;;;;;5.20;3.70;;;;;;;8.27;100.00;99799.59;5050808;28;20418;-71
2023/04/02 01:05:13;;;;;;;4.55;3.50;;;;;;;7.88;100.00;99851.81;5051106;28;20052;-72
2023/04/02 01:07:44;;;;;;;6.03;3.30;;;;;;;7.76;100.00;99856.28;5050913;28;20028;-72
2023/04/02 01:10:29;;;;;;;4.43;3.20;;;;;;;8.08;100.00;99818.50;5043122;28;20053;-73
2023/04/02 01:13:07;;;;;;;6.85;3.72;;;;;;;8.17;100.00;99782.03;5030975;28;20041;-73
2023/04/02 01:15:40;;;;;;;5.40;4.32;;;;;;;8.15;100.00;99821.75;5030213;28;20107;-72
2023/04/02 01:18:30;;;;;;;5.28;4.47;;;;;;;8.22;100.00;99754.94;5029188;28;20547;-73
2023/04/02 01:20:58;;;;;;;5.85;4.40;;;;;;;8.28;100.00;99811.38;5030098;28;20421;-72
2023/04/02 01:23:44;;;;;;;6.00;4.38;;;;;;;8.62;100.00;99822.44;5029770;28;20067;-71
2023/04/02 01:26:19;;;;;;;7.25;5.28;;;;;;;8.39;100.00;99808.59;5028559;28;20048;-71
2023/04/02 01:29:09;;;;;;;43.58;37.40;;;;;;;8.15;100.00;99809.09;5028584;28;20141;-71
2023/04/02 01:31:36;;;;;;;49.33;43.00;;;;;;;7.74;100.00;99731.50;5029563;28;20048;-71
2023/04/02 01:34:04;;;;;;;17.73;15.82;;;;;;;7.56;100.00;99764.75;5028702;28;20030;-71
2023/04/02 01:36:54;;;;;;;6.70;4.90;;;;;;;8.30;100.00;99822.28;5029757;28;20087;-71
2023/04/02 01:39:47;;;;;;;4.93;4.20;;;;;;;8.60;100.00;99815.72;5027696;28;20021;-70
2023/04/02 01:42:36;;;;;;;4.95;4.18;;;;;;;8.53;100.00;99807.44;5029351;28;20102;-71
2023/04/02 01:45:06;;;;;;;4.18;3.63;;;;;;;8.63;100.00;99768.38;5029512;28;20079;-72
2023/04/02 01:47:32;;;;;;;4.88;4.22;;;;;;;8.59;100.00;99746.50;5029680;28;20048;-71
2023/04/02 01:50:23;;;;;;;4.88;3.45;;;;;;;8.69;100.00;99759.78;5028998;28;20034;-71
2023/04/02 01:52:53;;;;;;;4.43;3.67;;;;;;;8.84;100.00;99763.63;5026601;28;20045;-71
2023/04/02 01:55:30;;;;;;;4.25;3.58;;;;;;;8.92;100.00;99769.34;5027949;28;20179;-71
2023/04/02 01:57:57;;;;;;;4.97;3.60;;;;;;;8.82;100.00;99798.31;5029558;28;20025;-71
2023/04/02 02:00:23;;;;;;;5.13;4.32;;;;;;;8.55;100.00;99810.78;5029083;28;20520;-71
2023/04/02 02:02:50;;;;;;;5.70;3.58;;;;;;;7.74;100.00;99812.47;5029525;28;20065;-71
2023/04/02 02:05:20;;;;;;;6.63;4.13;;;;;;;7.72;100.00;99788.91;5029376;28;20026;-71
2023/04/02 02:07:45;;;;;;;7.07;4.10;;;;;;;7.46;100.00;99770.84;5027994;28;20451;-71
2023/04/02 02:10:20;;;;;;;4.80;4.28;;;;;;;8.15;100.00;99836.94;5028944;28;20025;-70
2023/04/02 02:12:46;;;;;;;6.10;4.22;;;;;;;7.96;100.00;99828.06;5029245;28;20041;-71
2023/04/02 02:15:20;;;;;;;7.32;4.20;;;;;;;7.98;100.00;99794.28;4984077;28;1314324;-71
2023/04/02 02:17:47;;;;;;;5.82;4.07;;;;;;;7.92;100.00;99801.16;5028371;28;20048;-72
2023/04/02 02:20:13;;;;;;;6.28;4.40;;;;;;;7.63;100.00;99802.53;5030276;28;20591;-71
2023/04/02 02:22:44;;;;;;;8.57;4.63;;;;;;;7.88;100.00;99845.94;5062278;28;20099;-71
2023/04/02 02:25:17;;;;;;;6.22;5.63;;;;;;;8.03;100.00;99835.50;5029927;28;20040;-70
2023/04/02 02:28:09;;;;;;;6.15;4.85;;;;;;;8.16;100.00;99846.22;5029764;28;20034;-71
2023/04/02 02:30:40;;;;;;;5.78;4.60;;;;;;;8.09;100.00;99857.31;5027490;28;20034;-70
2023/04/02 02:33:15;;;;;;;5.88;5.05;;;;;;;8.08;100.00;99874.19;5028161;28;20124;-70
2023/04/02 02:36:01;;;;;;;6.30;4.00;;;;;;;7.36;100.00;99819.91;5029977;28;20404;-72
2023/04/02 02:38:41;;;;;;;6.13;4.25;;;;;;;7.68;100.00;99866.56;5028706;28;20025;-71
2023/04/02 02:41:16;;;;;;;5.88;4.03;;;;;;;7.65;100.00;99865.75;5030051;28;20045;-71
2023/04/02 02:43:50;;;;;;;6.03;3.83;;;;;;;7.70;100.00;99847.13;5028835;28;20511;-71
2023/04/02 02:46:19;;;;;;;5.55;3.80;;;;;;;7.48;100.00;99805.38;5028535;28;20519;-71
2023/04/02 02:48:46;;;;;;;4.57;4.15;;;;;;;7.67;100.00;99866.56;5029315;28;20484;-71
2023/04/02 02:51:22;;;;;;;6.70;4.25;;;;;;;7.50;100.00;99816.28;5032272;28;20022;-70
2023/04/02 02:53:53;;;;;;;4.25;3.85;;;;;;;7.90;100.00;99851.81;5033671;28;20419;-71
2023/04/02 02:56:21;;;;;;;2.90;2.67;;;;;;;7.70;100.00;99856.41;5032595;28;20125;-71
2023/04/02 02:58:49;;;;;;;4.43;4.03;;;;;;;7.71;100.00;99825.16;5032044;28;20029;-71
2023/04/02 03:01:15;;;;;;;4.40;4.00;;;;;;;7.69;100.00;99849.66;5033174;28;20040;-71
2023/04/02 03:03:41;;;;;;;4.53;3.70;;;;;;;7.21;100.00;99795.72;5032153;28;20490;-71
2023/04/02 03:06:09;;;;;;;4.32;3.92;;;;;;;7.63;100.00;99860.72;5033875;28;20100;-70
2023/04/02 03:08:45;;;;;;;5.97;3.72;;;;;;;7.70;100.00;99856.41;5032843;28;20036;-71
2023/04/02 03:11:18;;;;;;;4.78;4.28;;;;;;;7.56;100.00;99850.75;5031104;28;20033;-72
2023/04/02 03:13:48;;;;;;;7.10;4.25;;;;;;;7.33;100.00;99805.63;5050638;28;20041;-72
2023/04/02 03:16:19;;;;;;;5.50;4.45;;;;;;;7.80;100.00;99870.53;5052979;28;20053;-71
2023/04/02 03:19:03;;;;;;;5.32;4.30;;;;;;;7.80;100.00;99847.78;5052849;28;20021;-72
2023/04/02 03:22:04;;;;;;;6.03;4.32;;;;;;;7.74;100.00;99850.41;5051366;28;20041;-71
2023/04/02 03:24:31;;;;;;;5.88;4.35;;;;;;;7.72;100.00;99842.88;5053045;28;20029;-71
2023/04/02 03:27:19;;;;;;;5.03;3.97;;;;;;;7.38;100.00;99798.81;5052590;28;20159;-71
2023/04/02 03:30:00;;;;;;;4.40;4.00;;;;;;;7.59;100.00;99843.94;5052970;28;20115;-71
2023/04/02 03:32:31;;;;;;;4.65;4.10;;;;;;;7.71;100.00;99853.00;5052507;28;20025;-71
2023/04/02 03:35:08;;;;;;;4.60;4.20;;;;;;;7.76;100.00;99866.41;5052883;28;20175;-71
2023/04/02 03:37:41;;;;;;;4.35;3.95;;;;;;;7.69;100.00;99875.78;5052032;28;20037;-71
2023/04/02 03:40:17;;;;;;;4.50;4.10;;;;;;;7.81;100.00;99875.56;5052147;28;20032;-72
2023/04/02 03:42:51;;;;;;;4.68;3.92;;;;;;;7.85;100.00;99871.28;5050715;28;20021;-71
2023/04/02 03:45:24;;;;;;;5.18;3.90;;;;;;;7.55;100.00;99836.41;5052261;28;20033;-72
2023/04/02 03:48:03;;;;;;;4.05;3.65;;;;;;;7.90;100.00;99887.22;5050151;28;20058;-71
2023/04/02 03:50:40;;;;;;;4.60;4.00;;;;;;;7.92;100.00;99877.06;5051191;28;20406;-71
2023/04/02 03:53:07;;;;;;;4.53;3.97;;;;;;;8.04;100.00;99889.50;5052436;28;20418;-71
2023/04/02 03:55:36;;;;;;;14.02;11.32;;;;;;;7.92;100.00;99895.63;5052035;28;20035;-72
2023/04/02 03:58:02;;;;;;;9.98;8.02;;;;;;;7.89;100.00;99921.81;5050824;28;20119;-71
2023/04/02 04:00:51;;;;;;;6.63;5.93;;;;;;;7.96;100.00;99855.91;5051735;28;20124;-70
2023/04/02 04:03:41;;;;;;;4.43;3.80;;;;;;;8.22;100.00;99902.59;5051428;28;20029;-72
2023/04/02 04:06:28;;;;;;;4.72;3.85;;;;;;;7.71;100.00;99865.63;5051191;28;20483;-72
2023/04/02 04:09:11;;;;;;;4.72;3.78;;;;;;;7.43;100.00;99866.97;5044911;28;20072;-72
2023/04/02 04:11:44;;;;;;;5.85;4.97;;;;;;;7.97;100.00;99900.59;5032052;28;20045;-72
2023/04/02 04:14:22;;;;;;;8.32;5.97;;;;;;;7.73;100.00;99919.56;5030581;28;20034;-72
2023/04/02 04:16:57;;;;;;;11.57;7.63;;;;;;;7.71;100.00;99911.19;5038850;28;20483;-71
2023/04/02 04:19:40;;;;;;;10.02;7.43;;;;;;;7.65;100.00;99868.28;5049962;28;20029;-72
2023/04/02 04:22:14;;;;;;;14.98;9.07;;;;;;;7.72;100.00;99873.22;5030755;28;20034;-72
2023/04/02 04:24:44;;;;;;;19.63;12.13;;;;;;;8.04;100.00;99927.47;5031261;28;20091;-71
2023/04/02 04:27:34;;;;;;;13.80;9.20;;;;;;;7.99;100.00;99947.78;5037396;28;20079;-72
2023/04/02 04:30:15;;;;;;;8.10;7.28;;;;;;;8.07;100.00;99923.19;5051445;28;20649;-71
2023/04/02 04:32:49;;;;;;;10.73;8.43;;;;;;;8.13;100.00;99897.75;5049488;28;20033;-71
2023/04/02 04:35:37;;;;;;;10.15;8.55;;;;;;;8.28;100.00;99924.50;5051168;28;20487;-72
2023/04/02 04:38:26;;;;;;;18.13;15.20;;;;;;;8.42;100.00;99935.16;5050303;28;20056;-72
2023/04/02 04:40:55;;;;;;;19.70;14.45;;;;;;;9.19;100.00;99925.91;5051508;28;20051;-71
2023/04/02 04:43:44;;;;;;;14.15;12.18;;;;;;;8.39;100.00;99936.09;5049611;28;20025;-72
2023/04/02 04:46:17;;;;;;;12.32;9.70;;;;;;;8.26;100.00;99939.69;5051636;28;20029;-72
2023/04/02 04:48:59;;;;;;;7.90;7.10;;;;;;;8.18;100.00;99903.53;5050857;28;20061;-72
2023/04/02 04:51:32;;;;;;;8.02;6.22;;;;;;;8.49;100.00;99957.84;5048788;28;20033;-72
2023/04/02 04:53:59;;;;;;;8.48;6.97;;;;;;;8.46;100.00;99952.81;5049139;28;20094;-70
2023/04/02 04:56:28;;;;;;;9.63;8.40;;;;;;;8.26;100.00;99957.44;5051668;28;20033;-71
2023/04/02 04:59:10;;;;;;;6.57;5.60;;;;;;;8.03;100.00;99911.44;5050806;28;20033;-70
2023/04/02 05:02:18;;;;;;;8.50;5.57;;;;;;;8.65;100.00;99951.59;5049122;28;20609;-71
2023/04/02 05:04:49;;;;;;;6.00;5.40;;;;;;;8.20;100.00;99923.78;5050280;28;20143;-71
2023/04/02 05:07:19;;;;;;;5.75;5.07;;;;;;;8.48;100.00;99920.69;5050028;28;20122;-71
2023/04/02 05:09:50;;;;;;;6.90;5.63;;;;;;;8.90;100.00;99966.25;5050523;28;20487;-70
2023/04/02 05:12:36;;;;;;;6.72;6.03;;;;;;;8.78;100.00;99944.56;5050624;28;20055;-70
2023/04/02 05:15:23;;;;;;;7.80;5.60;;;;;;;9.03;100.00;99963.44;5049870;28;20053;-71
2023/04/02 05:18:07;;;;;;;7.43;6.40;;;;;;;8.89;100.00;99962.91;5049744;28;20025;-71
2023/04/02 05:20:39;;;;;;;6.70;6.00;;;;;;;8.90;100.00;99951.06;4702258;28;9999743;-71
2023/04/02 05:23:14;;;;;;;8.23;6.75;;;;;;;8.92;100.00;99927.34;5065284;28;20036;-70
2023/04/02 05:25:57;;;;;;;10.40;8.43;;;;;;;9.37;100.00;99971.09;5067396;28;20043;-70
2023/04/02 05:28:52;;;;;;;12.30;11.00;;;;;;;9.49;100.00;99973.34;5067030;28;20376;-72
2023/04/02 05:31:35;;;;;;;11.13;9.73;;;;;;;9.04;100.00;99969.34;5058030;28;20071;-70
2023/04/02 05:34:01;;;;;;;6.97;6.05;;;;;;;8.94;100.00;99895.19;5058142;28;20029;-71
2023/04/02 05:36:29;;;;;;;6.47;5.57;;;;;;;9.17;100.00;99927.63;5046818;28;20085;-71
2023/04/02 05:38:56;;;;;;;7.43;5.10;;;;;;;9.38;100.00;99977.84;5046302;28;20036;-71
2023/04/02 05:41:43;;;;;;;9.32;5.80;;;;;;;9.55;100.00;99976.59;5045669;28;20091;-71
2023/04/02 05:44:20;;;;;;;7.60;6.15;;;;;;;9.39;100.00;99984.59;5045463;28;20071;-71
2023/04/02 05:46:55;;;;;;;6.13;5.20;;;;;;;9.41;100.00;99949.88;5047301;28;20021;-72
2023/04/02 05:49:39;;;;;;;7.30;6.57;;;;;;;9.27;100.00;99947.66;5045835;28;20064;-70
2023/04/02 05:52:11;;;;;;;9.18;6.28;;;;;;;9.25;100.00;99974.75;5060205;28;20048;-70
2023/04/02 05:54:53;;;;;;;5.68;5.07;;;;;;;9.47;100.00;99978.47;5042560;28;20033;-71
2023/04/02 05:57:24;;;;;;;6.03;5.43;;;;;;;10.06;100.00;100012.53;5046409;28;20059;-71
2023/04/02 05:59:54;;;;;;;5.72;5.15;;;;;;;10.37;100.00;100002.47;5046625;28;20530;-71
2023/04/02 06:02:35;;;;;;;5.60;4.93;;;;;;;10.35;100.00;99946.63;5047348;28;20037;-69
2023/04/02 06:05:11;;;;;;;4.32;3.75;;;;;;;10.59;100.00;100000.16;5047403;28;20033;-71
2023/04/02 06:07:45;;;;;;;5.18;4.43;;;;;;;10.72;100.00;99948.94;5045385;28;20036;-71
2023/04/02 06:10:18;;;;;;;6.43;3.72;;;;;;;11.09;100.00;99987.66;5040398;28;20514;-71
2023/04/02 06:12:50;;;;;;;6.60;3.35;;;;;;;10.75;100.00;99942.94;5032975;28;20033;-70
2023/04/02 06:15:19;;;;;;;6.00;3.65;;;;;;;11.72;100.00;99958.56;5027737;28;20107;-66
2023/04/02 06:17:58;;;;;;;10.48;3.53;;;;;;;12.18;100.00;99987.53;5027065;28;20181;-70
2023/04/02 06:20:24;;;;;;;5.63;4.10;;;;;;;11.84;100.00;99946.25;5038257;28;20124;-70
2023/04/02 06:23:19;;;;;;;8.23;5.00;;;;;;;12.56;100.00;99952.19;5056138;28;20128;-70
2023/04/02 06:25:58;;;;;;;4.53;4.13;;;;;;;13.51;100.00;99969.78;5031549;28;20045;-71
2023/04/02 06:28:30;;;;;;;6.30;2.65;;;;;;;13.64;100.00;99970.13;5030130;28;20040;-71
2023/04/02 06:31:01;;;;;;;3.85;3.10;;;;;;;13.92;100.00;99955.34;5028639;28;20483;-71
2023/04/02 06:33:27;;;;;;;;;;;;;;;12.35;100.00;99952.97;5030869;28;20408;-71
2023/04/02 06:35:54;;;;;;;4.13;2.55;;;;;;;13.79;100.00;99962.66;5030314;28;19917;-71
2023/04/02 06:38:24;;;;;;;3.88;2.45;;;;;;;13.62;100.00;99905.50;5030113;28;20025;-70
2023/04/02 06:41:21;;;;;;;3.40;2.30;;;;;;;13.30;100.00;99924.69;5029876;28;20037;-71
2023/04/02 06:43:50;;;;;;;10.50;2.50;;;;;;;14.54;100.00;99888.66;5027662;28;20042;-70
2023/04/02 06:46:21;;;;;;;4.35;2.28;;;;;;;15.11;100.00;99915.88;5034547;28;20029;-73
2023/04/02 06:48:51;;;;;;;2.65;2.30;;;;;;;13.96;100.00;99884.47;5049377;28;20467;-74
2023/04/02 06:51:19;;;;;;;2.28;2.00;;;;;;;13.13;100.00;99926.25;5050615;28;20037;-71
2023/04/02 06:53:47;;;;;;;4.63;2.50;;;;;;;14.22;100.00;99884.16;5048143;28;20224;-71
2023/04/02 06:56:45;;;;;;;9.43;2.80;;;;;;;14.67;100.00;99907.69;5044299;28;20041;-72
2023/04/02 06:59:11;;;;;;;3.10;2.70;;;;;;;14.76;100.00;99894.47;5011195;28;20075;-71
2023/04/02 07:01:52;;;;;;;4.70;3.25;;;;;;;15.44;100.00;99892.06;5049607;28;20063;-70
2023/04/02 07:04:19;;;;;;;7.57;4.65;;;;;;;14.73;100.00;99828.09;5049479;28;20071;-70
2023/04/02 07:06:45;;;;;;;5.13;4.03;;;;;;;15.13;100.00;99847.47;5037739;28;20160;-71
2023/04/02 07:09:11;;;;;;;4.55;3.67;;;;;;;15.46;100.00;99836.44;5034681;28;20519;-70
2023/04/02 07:11:36;;;;;;;8.90;5.38;;;;;;;14.87;100.00;99818.03;5035215;28;20029;-70
2023/04/02 07:14:02;;;;;;;6.57;4.88;;;;;;;14.59;100.00;99785.25;5034208;28;20029;-70
2023/04/02 07:16:31;;;;;;;7.40;5.70;;;;;;;14.59;100.00;99823.63;5048826;28;20415;-69
2023/04/02 07:18:59;;;;;;;3.65;2.60;;;;;;;14.06;100.00;99791.16;5049030;28;20047;-70
2023/04/02 07:21:26;;;;;;;4.07;2.58;;;;;;;14.64;100.00;99854.91;5064946;28;20495;-72
2023/04/02 07:23:52;;;;;;;4.03;2.08;;;;;;;14.83;100.00;99790.91;5069965;28;20032;-71
2023/04/02 07:26:21;;;;;;;2.45;2.10;;;;;;;14.91;100.00;99785.41;5069856;28;20033;-71
2023/04/02 07:28:47;;;;;;;1.83;1.52;;;;;;;15.28;100.00;99793.78;5056766;28;20044;-70
2023/04/02 07:31:18;;;;;;;3.90;2.20;;;;;;;15.87;100.00;99777.91;5048515;28;20025;-70
2023/04/02 07:33:45;;;;;;;7.13;3.28;;;;;;;15.39;100.00;99719.75;5042396;28;20033;-71
2023/04/02 07:36:22;;;;;;;8.40;2.25;;;;;;;15.81;100.00;99723.56;5028837;28;20238;-71
2023/04/02 07:38:48;;;;;;;3.30;1.63;;;;;;;15.46;100.00;99704.94;5028765;28;20026;-71
2023/04/02 07:41:14;;;;;;;2.10;1.40;;;;;;;15.59;100.00;99693.94;5034619;28;20040;-70
2023/04/02 07:43:40;;;;;;;3.25;2.00;;;;;;;15.23;100.00;99654.06;5047382;28;20044;-70
2023/04/02 07:46:07;;;;;;;4.28;2.47;;;;;;;15.76;100.00;99664.88;5042699;28;20028;-69
2023/04/02 07:48:32;;;;;;;5.97;3.22;;;;;;;16.54;100.00;99643.41;5046782;28;20094;-70
2023/04/02 07:50:58;;;;;;;2.92;2.00;;;;;;;16.76;100.00;99566.75;5047758;28;20429;-70
2023/04/02 07:53:36;;;;;;;7.20;4.38;;;;;;;16.57;100.00;99473.81;5047983;28;20032;-70
2023/04/02 07:56:03;;;;;;;5.05;3.35;;;;;;;16.87;100.00;99364.94;5046075;28;20036;-70
2023/04/02 07:58:30;;;;;;;6.25;4.05;;;;;;;17.13;100.00;99256.19;5046719;28;20403;-70
2023/04/02 08:00:57;;;;;;;6.28;3.38;;;;;;;17.27;100.00;99072.88;5044771;28;20044;-71
2023/04/02 08:03:23;;;;;;;2.50;1.85;;;;;;;16.51;100.00;98920.75;5048693;28;20033;-71
2023/04/02 08:05:54;;;;;;;2.67;1.70;;;;;;;16.70;100.00;98705.50;5050518;28;20115;-70
2023/04/02 08:08:20;;;;;;;2.70;1.77;;;;;;;16.97;100.00;98397.94;5051052;28;20029;-69
2023/04/02 08:10:46;;;;;;;2.60;1.75;;;;;;;17.16;100.00;98225.22;5051053;28;20036;-70
2023/04/02 08:13:11;;;;;;;2.00;0.90;;;;;;;17.11;100.00;98163.94;5049970;28;20029;-70
2023/04/02 08:15:37;;;;;;;1.52;0.80;;;;;;;17.81;100.00;97912.03;5048223;28;20049;-70
2023/04/02 08:18:03;;;;;;;3.65;0.93;;;;;;;17.55;100.00;97671.25;5050603;28;20029;-71
2023/04/02 08:20:28;;;;;;;1.33;0.75;;;;;;;17.34;100.00;97548.16;5049357;28;20130;-70
2023/04/02 08:22:53;;;;;;;1.60;0.70;;;;;;;17.12;100.00;97379.91;5035437;28;20529;-70
2023/04/02 08:25:19;;;;;;;3.20;1.25;;;;;;;17.87;100.00;97302.22;5047843;28;20037;-70
2023/04/02 08:27:48;;;;;;;2.35;1.10;;;;;;;18.07;100.00;97256.50;5049289;28;20033;-71
2023/04/02 08:30:15;;;;;;;3.45;1.33;;;;;;;17.86;100.00;97245.84;5050935;28;20045;-74
2023/04/02 08:32:40;;;;;;;3.95;0.93;;;;;;;17.90;100.00;97273.66;5050366;28;20086;-74
2023/04/02 08:35:08;;;;;;;4.63;1.88;;;;;;;18.53;100.00;97255.19;5049736;28;20037;-73
2023/04/02 08:37:34;;;;;;;2.78;1.17;;;;;;;18.70;100.00;97297.97;5049550;28;20090;-73
2023/04/02 08:39:59;;;;;;;2.13;0.90;;;;;;;17.69;100.00;97411.22;5051298;28;20108;-73
2023/04/02 08:42:49;;;;;;;2.63;0.82;;;;;;;17.23;100.00;97459.28;5049840;28;20175;-73
2023/04/02 08:45:33;;;;;;;1.50;0.68;;;;;;;18.34;100.00;97301.75;5051155;28;20036;-73
2023/04/02 08:48:01;;;;;;;1.77;0.90;;;;;;;18.18;100.00;97402.81;5050593;28;20021;-72
2023/04/02 08:50:31;;;;;;;4.50;1.10;;;;;;;18.74;100.00;97453.72;5050692;28;20060;-73
2023/04/02 08:52:58;;;;;;;3.33;0.98;;;;;;;18.55;100.00;97526.03;5049520;28;20123;-73
2023/04/02 08:55:54;;;;;;;3.22;0.90;;;;;;;18.70;100.00;97676.34;5051391;28;20031;-73
2023/04/02 08:58:22;;;;;;;1.50;0.90;;;;;;;18.65;100.00;97802.13;5051330;28;20040;-73
2023/04/02 09:00:53;;;;;;;2.55;0.90;;;;;;;17.94;100.00;97802.00;5050547;28;20119;-73
2023/04/02 09:03:23;;;;;;;1.52;0.90;;;;;;;18.46;100.00;97900.84;5050040;28;20480;-74
2023/04/02 09:05:50;;;;;;;3.92;1.15;;;;;;;18.22;100.00;97933.16;5050110;28;20032;-74
2023/04/02 09:08:24;;;;;;;2.25;0.80;;;;;;;18.34;100.00;97925.13;5042178;28;20095;-73
2023/04/02 09:10:50;;;;;;;2.92;0.70;;;;;;;18.98;100.00;97967.09;5031074;28;20045;-73
2023/04/02 09:13:22;;;;;;;3.58;1.08;;;;;;;18.29;100.00;98026.81;5030778;28;20538;-73
2023/04/02 09:15:51;;;;;;;2.22;0.63;;;;;;;18.42;100.00;98032.50;5030867;28;20472;-72
2023/04/02 09:18:18;;;;;;;2.03;0.40;;;;;;;18.66;100.00;97982.16;5030720;28;20049;-72
2023/04/02 09:20:44;;;;;;;1.70;0.70;;;;;;;18.68;100.00;98069.53;5029319;28;20041;-73
2023/04/02 09:23:22;;;;;;;2.40;0.50;;;;;;;18.14;100.00;98108.75;5029537;28;20030;-73
2023/04/02 09:25:51;;;;;;;4.07;0.80;;;;;;;18.44;100.00;98098.31;5036532;28;20025;-73
2023/04/02 09:28:19;;;;;;;2.65;0.57;;;;;;;17.93;100.00;98056.66;5047526;28;20050;-72
2023/04/02 09:31:12;;;;;;;2.63;0.90;;;;;;;17.56;100.00;98113.03;5040652;28;20036;-72
2023/04/02 09:33:40;;;;;;;2.20;0.45;;;;;;;17.81;100.00;98119.44;5049939;28;20052;-72
2023/04/02 09:36:16;;;;;;;2.53;0.60;;;;;;;17.18;100.00;98048.69;5049753;28;20025;-73
2023/04/02 09:38:56;;;;;;;3.08;0.60;;;;;;;17.70;100.00;98050.16;5050166;28;20029;-72
2023/04/02 09:41:27;;;;;;;1.55;0.68;;;;;;;18.09;100.00;98108.34;5050207;28;20043;-72
2023/04/02 09:44:30;;;;;;;1.65;0.65;;;;;;;17.70;100.00;98122.13;5048714;28;20112;-71
2023/04/02 09:47:02;;;;;;;1.27;0.80;;;;;;;17.74;100.00;98138.91;5049705;28;20131;-71
2023/04/02 09:49:31;;;;;;;2.25;1.05;;;;;;;16.89;100.00;98082.00;5030681;28;20032;-71
2023/04/02 09:52:28;;;;;;;2.30;1.58;;;;;;;18.03;100.00;98160.31;5036162;28;20043;-69
2023/04/02 09:55:21;;;;;;;5.80;3.70;;;;;;;17.88;100.00;98185.63;5048755;28;20492;-72
2023/04/02 09:57:49;;;;;;;3.65;2.25;;;;;;;17.77;100.00;98215.75;5048249;28;20102;-72
2023/04/02 10:00:17;;;;;;;5.25;3.70;;;;;;;18.66;100.00;98203.53;5043907;28;20511;-71
2023/04/02 10:02:45;;;;;;;5.65;2.30;;;;;;;18.56;100.00;98195.00;5032135;28;20064;-70
2023/04/02 10:05:22;;;;;;;6.07;1.70;;;;;;;18.57;100.00;98252.47;5035818;28;20036;-71
2023/04/02 10:07:52;;;;;;;2.33;0.73;;;;;;;17.33;100.00;98228.00;5074730;28;20483;-71
2023/04/02 10:10:28;;;;;;;1.70;1.10;;;;;;;19.03;100.00;98265.47;5034270;28;20082;-71
2023/04/02 10:13:01;;;;;;;2.17;0.70;;;;;;;18.67;100.00;98304.78;5033706;28;20074;-70
2023/04/02 10:15:38;;;;;;;1.50;0.50;;;;;;;17.67;100.00;98313.41;5033684;28;20053;-69
2023/04/02 10:18:25;;;;;;;0.90;0.75;;;;;;;17.67;100.00;98282.56;5047601;28;20032;-73
2023/04/02 10:20:55;;;;;;;1.95;0.60;;;;;;;17.77;100.00;98303.97;5054173;28;20138;-72
2023/04/02 10:23:29;;;;;;;1.63;0.55;;;;;;;18.26;100.00;98290.34;5053353;28;20032;-70
2023/04/02 10:26:06;;;;;;;0.93;0.50;;;;;;;18.87;100.00;98332.16;5053290;28;20098;-72
2023/04/02 10:28:44;;;;;;;1.48;0.60;;;;;;;19.69;100.00;98346.16;5053829;28;20147;-72
2023/04/02 10:31:28;;;;;;;2.55;0.55;;;;;;;19.67;100.00;98337.75;5052260;28;20124;-72
2023/04/02 10:34:06;;;;;;;0.70;0.52;;;;;;;18.83;100.00;98341.09;5053845;28;20029;-73
2023/04/02 10:36:50;;;;;;;7.32;0.60;;;;;;;19.94;100.00;98435.03;5051216;28;20045;-72
2023/04/02 10:39:28;;;;;;;1.65;0.50;;;;;;;20.11;100.00;98485.91;5033480;28;20051;-72
2023/04/02 10:42:04;;;;;;;1.55;0.40;;;;;;;19.61;100.00;98516.25;5033684;28;20029;-72
2023/04/02 10:44:50;;;;;;;2.00;0.60;;;;;;;20.28;100.00;98558.31;5033857;28;20083;-72
2023/04/02 10:47:31;;;;;;;1.15;0.50;;;;;;;20.63;100.00;98599.84;5032287;28;20040;-72
2023/04/02 10:50:23;;;;;;;1.02;0.47;;;;;;;21.75;100.00;98689.38;5034312;28;20069;-74
2023/04/02 10:52:57;;;;;;;1.67;0.73;;;;;;;21.35;100.00;98775.03;5031985;28;20029;-70
2023/04/02 10:55:26;;;;;;;0.80;0.50;;;;;;;21.03;100.00;98818.47;5032910;28;20033;-72
2023/04/02 10:57:54;;;;;;;1.45;0.60;;;;;;;20.75;100.00;98848.50;5032289;28;20037;-75
2023/04/02 11:00:26;;;;;;;1.02;0.60;;;;;;;20.97;100.00;98899.09;5035797;28;20033;-73
2023/04/02 11:03:04;;;;;;;2.80;0.80;;;;;;;21.66;100.00;99047.28;5040200;28;20112;-73
2023/04/02 11:05:45;;;;;;;1.50;0.68;;;;;;;20.70;100.00;99120.16;5033674;28;20033;-74
2023/04/02 11:08:25;;;;;;;1.88;0.60;;;;;;;21.53;100.00;99149.25;5033534;28;20507;-72
2023/04/02 11:11:13;;;;;;;1.95;0.60;;;;;;;21.42;100.00;99167.47;5036249;28;20029;-72
2023/04/02 11:13:59;;;;;;;0.47;0.28;;;;;;;21.69;100.00;99177.19;5032724;28;20480;-70
2023/04/02 11:16:26;;;;;;;1.52;0.80;;;;;;;20.74;100.00;99149.13;5032303;28;20543;-70
2023/04/02 11:19:13;;;;;;;1.67;0.70;;;;;;;21.21;100.00;99191.75;5032834;28;20034;-72
2023/04/02 11:21:38;;;;;;;0.98;0.40;;;;;;;21.27;100.00;99206.75;4366277;28;10001043;-71
2023/04/02 11:24:04;;;;;;;1.33;0.50;;;;;;;21.87;100.00;99170.44;5063565;28;20052;-71
2023/04/02 12:01:17;;;;;;;2.33;0.65;;;;;;;21.79;100.00;99219.44;4917289;22;10001986;-76
2023/04/02 12:04:15;;;;;;;1.67;0.60;;;;;;;21.20;100.00;99224.53;5000962;28;20030;-73
2023/04/02 12:06:46;;;;;;;3.67;0.50;;;;;;;22.50;100.00;99239.09;4981400;28;20041;-71
2023/04/02 12:09:27;;;;;;;1.98;0.77;;;;;;;21.81;100.00;99222.75;5042416;28;20021;-72
2023/04/02 12:12:00;;;;;;;;;;;;;;;20.94;100.00;99228.41;5051539;28;20494;-73
2023/04/02 12:14:35;;;;;;;1.20;0.43;;;;;;;22.24;99.59;99158.47;5028072;28;20013;-76
2023/04/02 12:17:12;;;;;;;0.75;0.40;;;;;;;21.41;100.00;99155.47;5012463;28;20091;-76
2023/04/02 12:19:38;;;;;;;0.57;0.50;;;;;;;21.14;100.00;99212.13;5013081;28;20092;-75
2023/04/02 12:22:04;;;;;;;1.17;0.47;;;;;;;21.46;100.00;99139.56;5012537;28;20038;-74
2023/04/02 12:24:30;;;;;;;1.15;0.40;;;;;;;22.17;100.00;99209.22;5012234;28;20081;-77
2023/04/02 12:27:15;;;;;;;2.17;1.35;;;;;;;21.72;100.00;99160.59;5013526;28;20030;-76
2023/04/02 12:29:41;;;;;;;4.47;0.70;;;;;;;21.77;97.82;99218.75;5050790;28;20087;-74
2023/04/02 12:32:20;;;;;;;0.85;0.40;;;;;;;21.22;98.62;99201.94;5053163;28;20041;-73
2023/04/02 12:34:46;;;;;;;1.42;0.38;;;;;;;22.19;96.37;99150.31;5042558;28;20032;-79
2023/04/02 12:37:21;;;;;;;1.50;0.40;;;;;;;22.83;96.91;99228.31;5068918;28;20039;-74